createdAt,value
2018-06-30T00:01:43.242Z,101236.04
2018-06-30T00:04:13.168Z,101232.79
2018-06-30T00:06:42.514Z,101234.45
2018-06-30T00:09:12.214Z,101233.63
2018-06-30T00:11:41.742Z,101233.09
2018-06-30T00:14:11.967Z,101237.72
2018-06-30T00:16:44.826Z,101231.16
2018-06-30T00:19:14.329Z,101231.16
2018-06-30T00:21:44.038Z,101234.45
2018-06-30T00:24:13.482Z,101232.56
2018-06-30T00:26:42.864Z,101231.73
2018-06-30T00:29:12.299Z,101235.02
2018-06-30T00:31:41.713Z,101229.28
2018-06-30T00:34:11.491Z,101229.28
2018-06-30T00:36:41.414Z,101234.48
2018-06-30T00:39:11.485Z,101230.16
2018-06-30T00:41:41.002Z,101235.86
2018-06-30T00:44:10.926Z,101236.71
2018-06-30T00:46:40.464Z,101240.83
2018-06-30T00:49:13.638Z,101238.61
2018-06-30T00:51:43.011Z,101241.34
2018-06-30T00:54:12.345Z,101237.51
2018-06-30T00:56:41.865Z,101236.42
2018-06-30T00:59:11.691Z,101234.78
2018-06-30T01:01:42.091Z,101233.98
2018-06-30T01:04:11.436Z,101235.62
2018-06-30T01:06:40.990Z,101237.80
2018-06-30T01:09:17.957Z,101236.44
2018-06-30T01:11:47.303Z,101235.62
2018-06-30T01:14:16.943Z,101233.14
2018-06-30T01:16:48.080Z,101237.53
2018-06-30T01:19:17.872Z,101231.53
2018-06-30T01:21:47.521Z,101230.98
2018-06-30T01:24:17.130Z,101231.26
2018-06-30T01:26:46.394Z,101232.91
2018-06-30T01:29:16.109Z,101227.97
2018-06-30T01:31:45.629Z,101226.32
2018-06-30T01:34:15.398Z,101227.69
2018-06-30T01:36:44.995Z,101222.50
2018-06-30T01:39:14.260Z,101225.52
2018-06-30T01:41:44.055Z,101226.04
2018-06-30T01:44:13.589Z,101226.87
2018-06-30T01:46:43.740Z,101219.77
2018-06-30T01:49:13.179Z,101229.05
2018-06-30T01:51:42.536Z,101224.95
2018-06-30T01:54:11.933Z,101214.02
2018-06-30T01:56:41.502Z,101218.69
2018-06-30T01:59:10.833Z,101214.02
2018-06-30T02:01:40.653Z,101218.41
2018-06-30T02:04:10.523Z,101212.66
2018-06-30T02:06:39.815Z,101214.02
2018-06-30T02:09:10.633Z,101208.84
2018-06-30T02:11:40.740Z,101211.00
2018-06-30T02:14:10.720Z,101208.27
2018-06-30T02:16:40.234Z,101203.92
2018-06-30T02:19:09.573Z,101210.41
2018-06-30T02:21:39.163Z,101209.05
2018-06-30T02:24:08.832Z,101207.45
2018-06-30T02:26:40.255Z,101204.69
2018-06-30T02:29:10.094Z,101205.24
2018-06-30T02:31:39.531Z,101202.23
2018-06-30T02:34:08.898Z,101205.48
2018-06-30T02:36:38.486Z,101209.59
2018-06-30T02:39:08.943Z,101209.86
2018-06-30T02:41:38.279Z,101207.41
2018-06-30T02:44:07.885Z,101201.94
2018-06-30T02:46:37.154Z,101202.23
2018-06-30T02:49:07.295Z,101207.68
2018-06-30T02:51:36.983Z,101204.66
2018-06-30T02:54:06.707Z,101205.45
2018-06-30T02:56:36.075Z,101201.92
2018-06-30T02:59:05.905Z,101196.45
2018-06-30T03:01:35.543Z,101197.00
2018-06-30T03:04:04.965Z,101204.61
2018-06-30T03:06:34.436Z,101195.85
2018-06-30T03:09:04.977Z,101199.66
2018-06-30T03:11:34.516Z,101198.59
2018-06-30T03:14:04.379Z,101195.86
2018-06-30T03:16:34.264Z,101200.80
2018-06-30T03:19:04.326Z,101196.67
2018-06-30T03:21:33.624Z,101199.13
2018-06-30T03:24:03.744Z,101197.77
2018-06-30T03:26:33.424Z,101201.85
2018-06-30T03:29:02.910Z,101198.27
2018-06-30T03:31:32.683Z,101196.66
2018-06-30T03:34:02.503Z,101189.29
2018-06-30T03:36:32.426Z,101193.95
2018-06-30T03:39:02.225Z,101193.92
2018-06-30T03:41:31.538Z,101197.44
2018-06-30T03:44:01.431Z,101194.73
2018-06-30T03:46:30.788Z,101203.47
2018-06-30T03:49:00.446Z,101192.26
2018-06-30T03:51:30.374Z,101195.54
2018-06-30T03:54:00.084Z,101195.03
2018-06-30T03:56:30.011Z,101196.08
2018-06-30T03:59:00.186Z,101202.61
2018-06-30T04:01:29.627Z,101201.53
2018-06-30T04:03:59.501Z,101203.47
2018-06-30T04:06:29.209Z,101195.54
2018-06-30T04:08:58.977Z,101202.91
2018-06-30T04:11:29.076Z,101195.02
2018-06-30T04:13:58.465Z,101190.61
2018-06-30T04:16:28.382Z,101195.81
2018-06-30T04:19:02.882Z,101192.81
2018-06-30T04:21:32.264Z,101195.31
2018-06-30T04:24:01.690Z,101190.38
2018-06-30T04:26:31.948Z,101192.28
2018-06-30T04:29:01.902Z,101194.16
2018-06-30T04:31:31.200Z,101199.37
2018-06-30T04:34:00.654Z,101198.83
2018-06-30T04:36:31.065Z,101199.11
2018-06-30T04:39:00.980Z,101206.48
2018-06-30T04:41:30.688Z,101210.58
2018-06-30T04:44:01.871Z,101210.59
2018-06-30T04:46:32.446Z,101212.52
2018-06-30T04:49:01.865Z,101204.89
2018-06-30T04:51:31.101Z,101213.09
2018-06-30T04:54:00.989Z,101213.09
2018-06-30T04:56:31.113Z,101213.38
2018-06-30T04:59:00.893Z,101210.11
2018-06-30T05:01:30.371Z,101207.67
2018-06-30T05:03:59.816Z,101216.39
2018-06-30T05:06:29.116Z,101211.77
2018-06-30T05:08:59.066Z,101211.48
2018-06-30T05:11:29.092Z,101213.42
2018-06-30T05:13:58.679Z,101214.52
2018-06-30T05:16:27.981Z,101212.59
2018-06-30T05:18:58.373Z,101209.86
2018-06-30T05:21:29.583Z,101212.11
2018-06-30T05:24:00.085Z,101219.14
2018-06-30T05:26:29.853Z,101211.00
2018-06-30T05:28:59.190Z,101215.09
2018-06-30T05:31:33.251Z,101215.38
2018-06-30T05:34:04.391Z,101215.39
2018-06-30T05:36:33.903Z,101212.13
2018-06-30T05:39:03.499Z,101212.13
2018-06-30T05:41:33.337Z,101208.56
2018-06-30T05:44:02.726Z,101201.20
2018-06-30T05:46:32.079Z,101207.75
2018-06-30T05:49:01.610Z,101203.37
2018-06-30T05:51:31.561Z,101201.48
2018-06-30T05:54:00.799Z,101205.00
2018-06-30T05:56:31.163Z,101203.63
2018-06-30T05:59:00.583Z,101202.56
2018-06-30T06:01:30.104Z,101200.91
2018-06-30T06:03:59.554Z,101197.62
2018-06-30T06:06:29.257Z,101199.81
2018-06-30T06:08:59.365Z,101197.61
2018-06-30T06:11:28.968Z,101199.25
2018-06-30T06:13:58.603Z,101204.70
2018-06-30T06:16:28.229Z,101198.42
2018-06-30T06:18:57.818Z,101198.70
2018-06-30T06:21:27.463Z,101196.79
2018-06-30T06:23:56.821Z,101194.83
2018-06-30T06:26:26.539Z,101195.91
2018-06-30T06:28:56.205Z,101195.06
2018-06-30T06:31:25.750Z,101195.34
2018-06-30T06:33:55.442Z,101195.05
2018-06-30T06:36:25.024Z,101192.27
2018-06-30T06:38:58.265Z,101190.64
2018-06-30T06:41:27.682Z,101194.45
2018-06-30T06:43:57.006Z,101192.20
2018-06-30T06:46:26.689Z,101202.02
2018-06-30T06:48:56.039Z,101200.33
2018-06-30T06:51:25.763Z,101191.88
2018-06-30T06:53:59.416Z,101192.38
2018-06-30T06:56:28.807Z,101198.07
2018-06-30T06:58:58.155Z,101192.34
2018-06-30T07:01:27.472Z,101186.80
2018-06-30T07:03:57.055Z,101192.75
2018-06-30T07:06:26.520Z,101191.62
2018-06-30T07:08:59.666Z,101189.41
2018-06-30T07:11:28.947Z,101192.41
2018-06-30T07:13:58.332Z,101187.75
2018-06-30T07:16:27.827Z,101192.30
2018-06-30T07:18:57.476Z,101190.86
2018-06-30T07:21:26.881Z,101188.95
2018-06-30T07:23:56.315Z,101188.35
2018-06-30T07:26:25.993Z,101190.27
2018-06-30T07:28:56.167Z,101194.92
2018-06-30T07:31:25.827Z,101189.70
2018-06-30T07:33:56.202Z,101196.79
2018-06-30T07:36:25.564Z,101192.61
2018-06-30T07:38:55.027Z,101192.29
2018-06-30T07:41:24.336Z,101190.31
2018-06-30T07:43:53.970Z,101189.75
2018-06-30T07:46:24.282Z,101188.35
2018-06-30T07:48:53.694Z,101193.01
2018-06-30T07:51:23.077Z,101193.03
2018-06-30T07:53:52.400Z,101196.20
2018-06-30T07:58:55.453Z,101200.24
2018-06-30T08:01:26.015Z,101190.16
2018-06-30T08:03:55.386Z,101190.34
2018-06-30T08:06:25.128Z,101195.78
2018-06-30T08:08:54.535Z,101193.84
2018-06-30T08:11:23.911Z,101184.72
2018-06-30T08:13:53.466Z,101187.41
2018-06-30T08:16:23.051Z,101185.66
2018-06-30T08:18:52.729Z,101184.70
2018-06-30T08:21:22.148Z,101185.30
2018-06-30T08:23:51.708Z,101187.56
2018-06-30T08:26:21.309Z,101188.66
2018-06-30T08:28:51.113Z,101189.70
2018-06-30T08:31:24.556Z,101187.73
2018-06-30T08:33:54.212Z,101192.42
2018-06-30T08:36:27.317Z,101193.75
2018-06-30T08:38:56.697Z,101191.20
2018-06-30T08:41:26.243Z,101188.31
2018-06-30T08:43:56.201Z,101184.97
2018-06-30T08:46:25.846Z,101189.86
2018-06-30T08:48:55.224Z,101185.14
2018-06-30T08:51:28.199Z,101188.66
2018-06-30T08:53:57.951Z,101189.45
2018-06-30T08:56:27.397Z,101190.80
2018-06-30T08:58:56.762Z,101189.05
2018-06-30T09:01:26.645Z,101187.52
2018-06-30T09:03:56.139Z,101180.39
2018-06-30T09:06:26.374Z,101183.40
2018-06-30T09:08:56.223Z,101172.41
2018-06-30T09:11:25.525Z,101179.39
2018-06-30T09:13:55.295Z,101183.36
2018-06-30T09:16:25.054Z,101188.25
2018-06-30T09:18:55.011Z,101182.30
2018-06-30T09:21:26.230Z,101180.23
2018-06-30T09:23:56.264Z,101186.05
2018-06-30T09:26:25.680Z,101178.56
2018-06-30T09:28:55.302Z,101176.93
2018-06-30T09:31:24.679Z,101173.56
2018-06-30T09:33:54.093Z,101179.95
2018-06-30T09:36:23.708Z,101175.47
2018-06-30T09:38:53.647Z,101176.26
2018-06-30T09:41:26.542Z,101177.22
2018-06-30T09:43:56.112Z,101186.94
2018-06-30T09:46:25.739Z,101178.92
2018-06-30T09:48:55.746Z,101170.30
2018-06-30T09:51:25.548Z,101177.72
2018-06-30T09:53:55.109Z,101176.87
2018-06-30T09:56:25.596Z,101176.60
2018-06-30T09:58:55.007Z,101177.72
2018-06-30T10:01:24.307Z,101182.19
2018-06-30T10:03:53.817Z,101168.28
2018-06-30T10:06:23.269Z,101165.91
2018-06-30T10:08:53.779Z,101163.91
2018-06-30T10:11:24.328Z,101165.28
2018-06-30T10:13:54.782Z,101170.43
2018-06-30T10:16:25.483Z,101163.65
2018-06-30T10:18:54.979Z,101162.63
2018-06-30T10:21:24.464Z,101165.87
2018-06-30T10:23:54.107Z,101163.77
2018-06-30T10:26:23.537Z,101166.14
2018-06-30T10:28:53.438Z,101160.73
2018-06-30T10:31:22.932Z,101161.27
2018-06-30T10:33:52.605Z,101166.41
2018-06-30T10:36:22.006Z,101157.23
2018-06-30T10:38:51.830Z,101158.78
2018-06-30T10:41:21.696Z,101160.62
2018-06-30T10:43:53.718Z,101161.89
2018-06-30T10:46:23.881Z,101152.14
2018-06-30T10:48:54.055Z,101153.46
2018-06-30T10:51:24.410Z,101146.09
2018-06-30T10:53:53.891Z,101145.45
2018-06-30T10:56:23.565Z,101142.53
2018-06-30T10:58:53.163Z,101148.67
2018-06-30T11:01:22.994Z,101138.72
2018-06-30T11:03:52.691Z,101148.62
2018-06-30T11:06:22.612Z,101143.42
2018-06-30T11:08:53.822Z,101138.66
2018-06-30T11:11:23.467Z,101141.61
2018-06-30T11:13:52.919Z,101137.30
2018-06-30T11:16:22.739Z,101141.09
2018-06-30T11:18:52.411Z,101137.34
2018-06-30T11:21:22.583Z,101142.41
2018-06-30T11:23:52.525Z,101130.92
2018-06-30T11:26:22.541Z,101132.05
2018-06-30T11:28:51.944Z,101135.59
2018-06-30T11:31:21.836Z,101134.27
2018-06-30T11:33:51.637Z,101126.71
2018-06-30T11:36:21.701Z,101132.58
2018-06-30T11:38:51.472Z,101125.00
2018-06-30T11:41:20.794Z,101131.28
2018-06-30T11:43:50.364Z,101125.95
2018-06-30T11:46:20.228Z,101127.81
2018-06-30T11:48:49.562Z,101118.29
2018-06-30T11:51:19.006Z,101112.89
2018-06-30T11:53:48.678Z,101119.14
2018-06-30T11:56:18.314Z,101125.00
2018-06-30T11:58:47.877Z,101120.14
2018-06-30T12:01:17.307Z,101107.36
2018-06-30T12:03:46.550Z,101110.47
2018-06-30T12:06:16.229Z,101111.51
2018-06-30T12:08:45.541Z,101112.26
2018-06-30T12:11:15.778Z,101101.56
2018-06-30T12:13:45.480Z,101094.23
2018-06-30T12:16:14.892Z,101108.47
2018-06-30T12:18:44.232Z,101107.94
2018-06-30T12:21:14.591Z,101110.63
2018-06-30T12:23:44.037Z,101112.31
2018-06-30T12:26:13.518Z,101110.15
2018-06-30T12:28:43.023Z,101098.78
2018-06-30T12:31:12.722Z,101096.69
2018-06-30T12:33:42.356Z,101101.36
2018-06-30T12:36:12.048Z,101099.31
2018-06-30T12:38:41.457Z,101093.29
2018-06-30T12:41:11.072Z,101090.49
2018-06-30T12:43:40.793Z,101085.19
2018-06-30T12:46:10.339Z,101088.06
2018-06-30T12:48:40.098Z,101086.53
2018-06-30T12:51:09.393Z,101086.94
2018-06-30T12:53:38.995Z,101087.33
2018-06-30T12:56:08.375Z,101084.66
2018-06-30T12:58:38.390Z,101087.30
2018-06-30T13:01:07.882Z,101087.47
2018-06-30T13:03:37.484Z,101086.19
2018-06-30T13:06:06.719Z,101079.56
2018-06-30T13:08:36.340Z,101073.75
2018-06-30T13:11:06.219Z,101072.29
2018-06-30T13:13:35.552Z,101071.08
2018-06-30T13:16:04.972Z,101067.17
2018-06-30T13:18:35.073Z,101068.36
2018-06-30T13:21:04.413Z,101061.87
2018-06-30T13:23:34.089Z,101060.75
2018-06-30T13:26:03.578Z,101057.25
2018-06-30T13:28:33.570Z,101058.08
2018-06-30T13:31:03.311Z,101059.53
2018-06-30T13:33:32.960Z,101050.33
2018-06-30T13:36:02.835Z,101058.64
2018-06-30T13:38:33.167Z,101061.31
2018-06-30T13:41:02.920Z,101057.16
2018-06-30T13:43:32.638Z,101055.39
2018-06-30T13:46:02.755Z,101056.52
2018-06-30T13:48:32.791Z,101051.97
2018-06-30T13:51:06.835Z,101059.89
2018-06-30T13:53:37.062Z,101052.69
2018-06-30T13:56:07.546Z,101046.44
2018-06-30T13:58:37.605Z,101044.17
2018-06-30T14:01:07.116Z,101038.23
2018-06-30T14:03:36.539Z,101044.93
2018-06-30T14:06:05.994Z,101046.11
2018-06-30T14:08:36.614Z,101042.59
2018-06-30T14:11:06.061Z,101041.88
2018-06-30T14:13:35.663Z,101033.84
2018-06-30T14:16:05.126Z,101029.06
2018-06-30T14:18:35.192Z,101028.55
2018-06-30T14:21:05.321Z,101026.78
2018-06-30T14:23:34.651Z,101034.00
2018-06-30T14:26:04.369Z,101029.06
2018-06-30T14:28:33.704Z,101025.88
2018-06-30T14:31:03.519Z,101021.72
2018-06-30T14:33:32.919Z,101027.84
2018-06-30T14:36:02.754Z,101023.78
2018-06-30T14:38:32.900Z,101027.91
2018-06-30T14:41:02.673Z,101020.77
2018-06-30T14:43:32.367Z,101026.34
2018-06-30T14:46:01.725Z,101018.89
2018-06-30T14:48:31.348Z,101010.42
2018-06-30T14:51:00.833Z,101008.38
2018-06-30T14:53:30.403Z,101003.77
2018-06-30T14:56:00.364Z,100998.95
2018-06-30T14:58:30.513Z,101004.15
2018-06-30T15:00:59.867Z,100990.08
2018-06-30T15:03:32.873Z,100991.38
2018-06-30T15:06:02.894Z,101009.63
2018-06-30T15:08:32.191Z,101000.25
2018-06-30T15:11:01.474Z,100996.77
2018-06-30T15:13:31.036Z,101003.19
2018-06-30T15:16:00.513Z,100999.29
2018-06-30T15:18:30.619Z,100997.19
2018-06-30T15:21:00.156Z,101001.72
2018-06-30T15:23:29.548Z,100998.45
2018-06-30T15:25:59.380Z,100994.81
2018-06-30T15:28:29.004Z,100990.66
2018-06-30T15:30:58.659Z,100992.45
2018-06-30T15:33:27.906Z,100991.88
2018-06-30T15:35:57.487Z,100990.16
2018-06-30T15:38:27.665Z,100994.26
2018-06-30T15:40:56.995Z,100991.66
2018-06-30T15:43:26.684Z,100994.72
2018-06-30T15:45:56.385Z,100986.92
2018-06-30T15:48:26.204Z,100988.95
2018-06-30T15:50:56.007Z,100988.23
2018-06-30T15:53:25.411Z,100993.09
2018-06-30T15:55:54.976Z,100991.08
2018-06-30T15:58:24.459Z,100986.47
2018-06-30T16:00:53.868Z,100984.25
2018-06-30T16:03:25.151Z,100977.67
2018-06-30T16:05:56.165Z,100984.25
2018-06-30T16:08:25.947Z,100987.18
2018-06-30T16:10:58.653Z,100982.28
2018-06-30T16:13:29.108Z,100982.86
2018-06-30T16:15:59.520Z,100977.25
2018-06-30T16:18:29.054Z,100984.34
2018-06-30T16:20:58.514Z,100982.07
2018-06-30T16:23:29.151Z,100979.64
2018-06-30T16:25:58.360Z,100975.96
2018-06-30T16:28:27.710Z,100979.64
2018-06-30T16:30:58.008Z,100979.80
2018-06-30T16:33:27.370Z,100977.92
2018-06-30T16:35:56.909Z,100978.34
2018-06-30T16:38:26.332Z,100968.42
2018-06-30T16:40:55.781Z,100973.86
2018-06-30T16:43:25.054Z,100980.36
2018-06-30T16:45:54.736Z,100972.81
2018-06-30T16:48:24.569Z,100969.30
2018-06-30T16:50:54.579Z,100958.83
2018-06-30T16:53:24.566Z,100967.28
2018-06-30T16:55:53.856Z,100964.61
2018-06-30T16:58:23.603Z,100966.95
2018-06-30T17:00:52.989Z,100960.29
2018-06-30T17:03:23.610Z,100969.33
2018-06-30T17:05:53.229Z,100962.89
2018-06-30T17:08:23.393Z,100962.89
2018-06-30T17:10:52.640Z,100961.12
2018-06-30T17:13:22.230Z,100958.91
2018-06-30T17:15:51.566Z,100963.46
2018-06-30T17:18:21.009Z,100963.21
2018-06-30T17:20:51.176Z,100967.23
2018-06-30T17:23:20.536Z,100959.45
2018-06-30T17:25:50.066Z,100955.38
2018-06-30T17:28:19.273Z,100960.48
2018-06-30T17:30:49.611Z,100956.17
2018-06-30T17:33:19.032Z,100966.58
2018-06-30T17:35:48.545Z,100964.69
2018-06-30T17:38:18.563Z,100963.31
2018-06-30T17:40:51.935Z,100971.67
2018-06-30T17:43:21.476Z,100970.87
2018-06-30T17:45:51.336Z,100964.78
2018-06-30T17:48:20.644Z,100973.94
2018-06-30T17:50:50.532Z,100969.88
2018-06-30T17:53:20.161Z,100973.21
2018-06-30T17:55:49.663Z,100981.64
2018-06-30T17:58:19.050Z,100972.28
2018-06-30T18:00:48.382Z,100969.59
2018-06-30T18:03:18.061Z,100965.86
2018-06-30T18:05:47.605Z,100972.10
2018-06-30T18:08:17.131Z,100971.92
2018-06-30T18:10:46.732Z,100972.32
2018-06-30T18:13:16.038Z,100971.20
2018-06-30T18:15:45.824Z,100973.42
2018-06-30T18:18:15.123Z,100970.98
2018-06-30T18:20:44.991Z,100974.94
2018-06-30T18:23:14.290Z,100970.88
2018-06-30T18:25:43.823Z,100968.70
2018-06-30T18:28:13.701Z,100967.94
2018-06-30T18:30:43.411Z,100965.58
2018-06-30T18:33:13.082Z,100968.73
2018-06-30T18:35:42.468Z,100972.17
2018-06-30T18:38:12.084Z,100969.23
2018-06-30T18:40:41.974Z,100979.53
2018-06-30T18:43:11.722Z,100979.86
2018-06-30T18:45:41.261Z,100979.93
2018-06-30T18:48:11.575Z,100973.42
2018-06-30T18:50:40.855Z,100977.70
2018-06-30T18:53:10.253Z,100984.59
2018-06-30T18:55:39.603Z,100987.48
2018-06-30T18:58:08.847Z,100987.62
2018-06-30T19:00:38.761Z,100986.85
2018-06-30T19:03:08.440Z,100996.09
2018-06-30T19:05:37.743Z,100995.61
2018-06-30T19:08:07.430Z,101000.61
2018-06-30T19:10:36.940Z,100998.23
2018-06-30T19:13:06.852Z,101000.52
2018-06-30T19:15:36.735Z,100996.73
2018-06-30T19:18:06.557Z,101000.77
2018-06-30T19:20:36.104Z,101003.08
2018-06-30T19:23:05.581Z,101005.89
2018-06-30T19:25:36.500Z,101007.65
2018-06-30T19:28:06.184Z,101012.64
2018-06-30T19:30:35.522Z,101014.14
2018-06-30T19:33:05.085Z,101021.73
2018-06-30T19:35:34.917Z,101025.40
2018-06-30T19:38:04.516Z,101023.88
2018-06-30T19:40:33.820Z,101029.45
2018-06-30T19:43:03.415Z,101037.77
2018-06-30T19:45:33.133Z,101039.34
2018-06-30T19:48:06.129Z,101037.70
2018-06-30T19:50:35.692Z,101048.34
2018-06-30T19:53:05.291Z,101049.00
2018-06-30T19:55:35.194Z,101048.20
2018-06-30T19:58:04.886Z,101049.42
2018-06-30T20:00:34.458Z,101050.64
2018-06-30T20:03:04.085Z,101055.34
2018-06-30T20:05:33.786Z,101059.31
2018-06-30T20:08:03.592Z,101063.76
2018-06-30T20:10:33.123Z,101068.30
2018-06-30T20:13:02.478Z,101074.23
2018-06-30T20:15:32.261Z,101075.76
2018-06-30T20:18:02.152Z,101077.00
2018-06-30T20:20:31.556Z,101077.23
2018-06-30T20:23:01.568Z,101081.88
2018-06-30T20:25:31.394Z,101087.99
2018-06-30T20:28:04.784Z,101086.05
2018-06-30T20:30:36.132Z,101089.72
2018-06-30T20:33:05.796Z,101085.88
2018-06-30T20:35:35.154Z,101090.36
2018-06-30T20:38:08.048Z,101088.58
2018-06-30T20:40:37.931Z,101090.08
2018-06-30T20:43:07.659Z,101092.88
2018-06-30T20:45:37.231Z,101094.11
2018-06-30T20:48:07.723Z,101100.89
2018-06-30T20:50:43.254Z,101105.02
2018-06-30T20:53:12.995Z,101098.55
2018-06-30T20:55:42.827Z,101101.16
2018-06-30T20:58:12.332Z,101100.63
2018-06-30T21:00:42.284Z,101107.31
2018-06-30T21:03:14.187Z,101112.05
2018-06-30T21:05:44.019Z,101114.27
2018-06-30T21:08:13.578Z,101110.75
2018-06-30T21:10:43.366Z,101114.83
2018-06-30T21:13:12.919Z,101117.62
2018-06-30T21:15:42.769Z,101119.61
2018-06-30T21:18:12.648Z,101123.07
2018-06-30T21:20:42.116Z,101130.31
2018-06-30T21:23:12.197Z,101130.81
2018-06-30T21:25:41.443Z,101129.20
2018-06-30T21:28:11.564Z,101132.76
2018-06-30T21:30:40.907Z,101132.09
2018-06-30T21:33:11.328Z,101130.95
2018-06-30T21:35:41.082Z,101132.59
2018-06-30T21:38:10.463Z,101134.27
2018-06-30T21:40:40.748Z,101135.18
2018-06-30T21:43:10.361Z,101133.30
2018-06-30T21:45:39.942Z,101137.95
2018-06-30T21:48:09.519Z,101143.02
2018-06-30T21:50:39.482Z,101140.39
2018-06-30T21:53:08.948Z,101143.34
2018-06-30T21:55:39.207Z,101146.39
2018-06-30T21:58:08.963Z,101143.98
2018-06-30T22:00:51.889Z,101144.55
2018-06-30T22:03:24.930Z,101143.56
2018-06-30T22:05:56.658Z,101144.66
2018-06-30T22:08:26.546Z,101150.78
2018-06-30T22:10:55.986Z,101149.64
2018-06-30T22:13:25.483Z,101154.38
2018-06-30T22:15:55.161Z,101153.91
2018-06-30T22:18:25.348Z,101156.34
2018-06-30T22:20:54.697Z,101149.02
2018-06-30T22:23:24.540Z,101151.48
2018-06-30T22:25:53.911Z,101152.02
2018-06-30T22:28:23.572Z,101150.50
2018-06-30T22:30:53.221Z,101159.68
2018-06-30T22:33:25.827Z,101159.66
2018-06-30T22:35:55.675Z,101158.09
2018-06-30T22:38:25.440Z,101162.52
2018-06-30T22:40:55.329Z,101161.10
2018-06-30T22:43:26.250Z,101151.30
2018-06-30T22:45:56.700Z,101156.55
2018-06-30T22:48:26.257Z,101157.39
2018-06-30T22:50:55.623Z,101156.98
2018-06-30T22:53:26.032Z,101158.14
2018-06-30T22:55:55.832Z,101151.27
2018-06-30T22:58:25.366Z,101156.17
2018-06-30T23:00:54.804Z,101154.78
2018-06-30T23:03:24.216Z,101149.98
2018-06-30T23:05:53.521Z,101152.48
2018-06-30T23:08:23.483Z,101156.16
2018-06-30T23:10:52.817Z,101159.17
2018-06-30T23:13:22.336Z,101156.49
2018-06-30T23:15:51.902Z,101155.69
2018-06-30T23:18:21.261Z,101155.61
2018-06-30T23:20:50.567Z,101155.36
2018-06-30T23:23:20.057Z,101158.17
2018-06-30T23:25:50.392Z,101156.77
2018-06-30T23:28:19.996Z,101161.74
2018-06-30T23:30:49.723Z,101160.88
2018-06-30T23:33:19.349Z,101166.90
2018-06-30T23:35:52.235Z,101169.09
2018-06-30T23:38:21.867Z,101169.13
2018-06-30T23:40:51.720Z,101174.90
2018-06-30T23:43:21.676Z,101170.27
2018-06-30T23:45:51.151Z,101175.69
2018-06-30T23:48:20.477Z,101178.20
2018-06-30T23:50:50.132Z,101181.80
2018-06-30T23:53:19.705Z,101171.12
2018-06-30T23:55:49.162Z,101180.48
2018-06-30T23:58:18.689Z,101184.34
